Time;durP1;ratioP1;P1;durP2;ratioP2;P2;SDS_P1;SDS_P2;PMS_P1;PMS_P2;Temp;Humidity;BMP_temperature;BMP_pressure;BME280_temperature;BME280_humidity;BME280_pressure;Samples;Min_cycle;Max_cycle;Signal;HPM_P1;HPM_P2
2023/08/26 00:00:43;;;;;;;5.50;4.07;;;19.20;99.90;;;;;;5001074;28;20252;-85
2023/08/26 00:03:10;;;;;;;6.68;3.97;;;19.20;99.90;;;;;;5001780;28;20182;-85
2023/08/26 00:05:35;;;;;;;6.00;3.83;;;19.20;99.90;;;;;;5001760;28;20265;-85
2023/08/26 00:08:01;;;;;;;5.07;3.95;;;19.10;99.90;;;;;;5018512;28;20183;-85
2023/08/26 00:10:27;;;;;;;5.75;3.72;;;19.10;99.90;;;;;;5002155;28;20198;-84
2023/08/26 00:12:52;;;;;;;5.32;3.20;;;19.20;99.90;;;;;;5001543;28;20179;-86
2023/08/26 00:15:18;;;;;;;10.10;3.92;;;19.20;99.90;;;;;;5001302;28;20187;-85
2023/08/26 00:17:44;;;;;;;8.80;3.10;;;19.10;99.90;;;;;;5001504;28;20179;-85
2023/08/26 00:20:10;;;;;;;4.97;3.45;;;19.00;99.90;;;;;;5019564;28;20640;-85
2023/08/26 00:22:37;;;;;;;6.70;3.40;;;19.00;99.90;;;;;;5001865;28;20179;-86
2023/08/26 00:25:03;;;;;;;5.80;3.45;;;19.00;99.90;;;;;;5001070;28;20183;-85
2023/08/26 00:27:29;;;;;;;4.82;3.38;;;19.00;99.90;;;;;;5001234;28;20175;-84
2023/08/26 00:29:55;;;;;;;5.88;3.35;;;19.00;99.90;;;;;;5001382;28;20187;-85
2023/08/26 00:32:21;;;;;;;4.38;3.28;;;19.00;99.90;;;;;;5034408;28;20179;-85
2023/08/26 00:34:47;;;;;;;5.13;3.17;;;19.00;99.90;;;;;;5035497;28;20183;-85
2023/08/26 00:37:13;;;;;;;5.13;3.22;;;19.00;99.90;;;;;;5018562;28;20179;-85
2023/08/26 00:39:39;;;;;;;7.43;3.88;;;19.00;99.90;;;;;;5001572;28;20215;-85
2023/08/26 00:42:05;;;;;;;8.30;3.70;;;18.90;99.90;;;;;;5033821;28;20175;-85
2023/08/26 00:44:30;;;;;;;4.60;3.55;;;18.90;99.90;;;;;;5033192;28;20281;-89
2023/08/26 00:46:57;;;;;;;7.10;3.50;;;18.90;99.90;;;;;;5000551;28;20227;-86
2023/08/26 00:49:24;;;;;;;5.55;3.42;;;18.90;99.90;;;;;;5001341;28;20209;-85
2023/08/26 00:51:50;;;;;;;5.55;3.78;;;18.90;99.90;;;;;;5018689;28;20217;-85
2023/08/26 00:54:17;;;;;;;7.55;3.90;;;18.80;99.90;;;;;;5018502;28;20610;-87
2023/08/26 00:56:43;;;;;;;7.55;4.28;;;18.80;99.90;;;;;;5000905;28;20214;-86
2023/08/26 00:59:10;;;;;;;6.00;4.40;;;18.80;99.90;;;;;;5016826;28;20272;-85
2023/08/26 01:01:37;;;;;;;6.47;4.18;;;18.70;99.90;;;;;;5016270;28;20173;-87
2023/08/26 01:04:04;;;;;;;15.40;4.80;;;18.70;99.90;;;;;;5000657;28;20186;-85
2023/08/26 01:06:29;;;;;;;6.03;4.20;;;18.70;99.90;;;;;;4999640;28;20183;-89
2023/08/26 01:08:56;;;;;;;5.90;3.65;;;18.70;99.90;;;;;;4999380;28;20182;-92
2023/08/26 01:11:40;;;;;;;6.65;3.67;;;18.70;99.90;;;;;;4999763;28;20629;-85
2023/08/26 01:14:19;;;;;;;4.35;3.58;;;18.70;99.90;;;;;;5000176;28;20171;-86
2023/08/26 01:16:45;;;;;;;6.13;3.80;;;18.80;99.90;;;;;;4984962;28;20188;-84
2023/08/26 01:19:32;;;;;;;5.68;3.60;;;18.70;99.90;;;;;;4979367;28;20216;-86
2023/08/26 01:22:02;;;;;;;8.13;3.88;;;18.70;99.90;;;;;;4983229;28;20263;-86
2023/08/26 01:24:28;;;;;;;6.80;3.35;;;18.70;99.90;;;;;;4983884;28;20207;-85
2023/08/26 01:26:54;;;;;;;8.45;3.92;;;18.70;99.90;;;;;;5001525;28;20305;-86
2023/08/26 01:29:19;;;;;;;9.57;3.97;;;18.70;99.90;;;;;;4984005;28;20610;-85
2023/08/26 01:31:50;;;;;;;6.78;4.00;;;18.70;99.90;;;;;;5000148;28;20222;-85
2023/08/26 01:34:22;;;;;;;8.52;4.05;;;18.70;99.90;;;;;;4984025;28;20318;-86
2023/08/26 01:36:50;;;;;;;4.43;3.60;;;18.70;99.90;;;;;;5000527;28;20180;-86
2023/08/26 01:41:51;;;;;;;5.07;3.90;;;18.70;99.90;;;;;;5082845;23;20234;-85
2023/08/26 01:44:26;;;;;;;5.38;3.78;;;18.70;99.90;;;;;;5038896;28;20174;-83
2023/08/26 01:46:53;;;;;;;4.95;3.65;;;18.70;99.90;;;;;;5005443;28;20205;-84
2023/08/26 01:49:19;;;;;;;7.75;3.40;;;18.80;99.90;;;;;;5020367;28;20190;-85
2023/08/26 01:51:45;;;;;;;8.18;3.90;;;18.70;99.90;;;;;;5039124;28;20178;-89
2023/08/26 01:54:11;;;;;;;8.65;3.72;;;18.80;99.90;;;;;;5020553;28;20184;-82
2023/08/26 01:56:37;;;;;;;5.72;3.20;;;18.80;99.90;;;;;;5020523;28;20181;-85
2023/08/26 01:59:03;;;;;;;4.85;3.15;;;18.80;99.90;;;;;;5039378;28;20303;-84
2023/08/26 02:01:29;;;;;;;4.50;3.60;;;18.80;99.90;;;;;;5021929;28;20185;-86
2023/08/26 02:03:55;;;;;;;6.57;3.78;;;18.80;99.90;;;;;;5022037;28;20171;-85
2023/08/26 02:06:21;;;;;;;6.25;4.15;;;18.90;99.90;;;;;;5039833;28;20190;-87
2023/08/26 02:08:47;;;;;;;4.93;3.42;;;18.80;99.90;;;;;;5021935;28;20241;-85
2023/08/26 02:11:13;;;;;;;5.07;3.38;;;18.90;99.90;;;;;;5022162;28;20178;-85
2023/08/26 02:13:38;;;;;;;6.07;3.30;;;18.90;99.90;;;;;;5022672;28;20569;-85
2023/08/26 02:16:09;;;;;;;5.30;2.97;;;18.90;99.90;;;;;;5021752;28;20181;-84
2023/08/26 02:18:35;;;;;;;3.50;3.20;;;18.80;99.90;;;;;;5021264;28;20202;-85
2023/08/26 02:21:01;;;;;;;5.93;3.63;;;18.80;99.90;;;;;;5021435;28;20178;-84
2023/08/26 02:23:27;;;;;;;7.05;3.95;;;18.90;99.90;;;;;;5021776;28;20174;-84
2023/08/26 02:25:52;;;;;;;5.15;4.00;;;18.80;99.90;;;;;;5021457;28;20232;-85
2023/08/26 02:28:18;;;;;;;6.70;3.90;;;18.80;99.90;;;;;;5038859;28;20177;-85
2023/08/26 02:30:45;;;;;;;5.78;4.03;;;18.80;99.90;;;;;;5039057;28;20179;-85
2023/08/26 02:33:11;;;;;;;3.92;3.40;;;18.80;99.90;;;;;;5020800;28;20213;-85
2023/08/26 02:35:37;;;;;;;8.88;4.38;;;18.80;99.90;;;;;;5038646;28;20601;-84
2023/08/26 02:38:04;;;;;;;6.43;3.90;;;18.70;99.90;;;;;;5037897;28;20170;-84
2023/08/26 02:40:32;;;;;;;5.85;4.32;;;18.70;99.90;;;;;;5019912;28;20574;-85
2023/08/26 02:42:58;;;;;;;8.77;4.78;;;18.60;99.90;;;;;;5003672;28;20178;-85
2023/08/26 02:45:23;;;;;;;5.35;4.53;;;18.60;99.90;;;;;;5019632;28;20185;-85
2023/08/26 02:47:51;;;;;;;6.85;4.90;;;18.60;99.90;;;;;;5037179;28;20516;-84
2023/08/26 02:50:17;;;;;;;6.03;4.40;;;18.50;99.90;;;;;;5021133;28;20559;-85
2023/08/26 02:52:43;;;;;;;7.65;4.43;;;18.50;99.90;;;;;;5005043;28;20285;-84
2023/08/26 02:55:09;;;;;;;8.18;4.28;;;18.50;99.90;;;;;;5021132;28;20221;-85
2023/08/26 02:57:35;;;;;;;4.10;3.70;;;18.50;99.90;;;;;;5021166;28;20175;-85
2023/08/26 03:00:03;;;;;;;6.47;4.45;;;18.40;99.90;;;;;;5021634;28;20257;-85
2023/08/26 03:02:31;;;;;;;4.43;3.80;;;18.40;99.90;;;;;;5039142;28;20616;-85
2023/08/26 03:04:57;;;;;;;5.57;5.07;;;18.40;99.90;;;;;;5022154;28;20185;-84
2023/08/26 03:07:23;;;;;;;7.75;5.30;;;18.40;99.90;;;;;;5021962;28;20277;-85
2023/08/26 03:09:48;;;;;;;7.20;4.97;;;18.40;99.90;;;;;;5039235;28;20163;-84
2023/08/26 03:12:14;;;;;;;7.85;5.20;;;18.40;99.90;;;;;;5039502;28;20179;-84
2023/08/26 03:14:40;;;;;;;10.38;5.88;;;18.50;99.90;;;;;;5039475;28;20167;-84
2023/08/26 03:17:06;;;;;;;13.45;6.10;;;18.40;99.90;;;;;;5021748;28;20182;-84
2023/08/26 03:19:32;;;;;;;8.88;6.28;;;18.50;99.90;;;;;;5021310;28;20214;-85
2023/08/26 03:21:58;;;;;;;9.95;7.72;;;18.50;99.90;;;;;;5020996;28;20190;-85
2023/08/26 03:24:25;;;;;;;12.07;7.22;;;18.50;99.90;;;;;;5020897;28;20617;-85
2023/08/26 03:26:51;;;;;;;10.60;7.05;;;18.50;99.90;;;;;;5038512;28;20633;-85
2023/08/26 03:29:17;;;;;;;8.43;7.30;;;18.50;99.90;;;;;;5020589;28;20262;-85
2023/08/26 03:31:44;;;;;;;8.93;7.05;;;18.50;99.90;;;;;;5004823;28;20528;-84
2023/08/26 03:34:10;;;;;;;9.15;7.10;;;18.50;99.90;;;;;;5021844;28;20202;-84
2023/08/26 03:36:37;;;;;;;9.93;6.85;;;18.60;99.90;;;;;;5021536;28;20675;-87
2023/08/26 03:39:02;;;;;;;9.27;7.45;;;18.50;99.90;;;;;;5021618;28;20231;-85
2023/08/26 03:41:29;;;;;;;9.80;7.00;;;18.60;99.90;;;;;;5020781;28;20230;-85
2023/08/26 03:43:56;;;;;;;11.80;8.10;;;18.60;99.90;;;;;;5019710;28;20178;-85
2023/08/26 03:46:22;;;;;;;10.10;7.95;;;18.50;99.90;;;;;;5019601;28;20627;-84
2023/08/26 03:48:47;;;;;;;10.13;8.55;;;18.60;99.90;;;;;;5020138;28;20258;-84
2023/08/26 03:51:13;;;;;;;13.65;8.48;;;18.60;99.90;;;;;;5038248;28;20179;-86
2023/08/26 03:53:39;;;;;;;12.95;9.02;;;18.60;99.90;;;;;;5019900;28;20186;-85
2023/08/26 03:56:04;;;;;;;9.68;8.68;;;18.60;99.90;;;;;;5018880;28;20181;-85
2023/08/26 03:58:30;;;;;;;11.35;8.75;;;18.60;99.90;;;;;;5036817;28;20210;-92
2023/08/26 04:01:01;;;;;;;11.77;9.18;;;18.70;99.90;;;;;;5037066;28;20205;-85
2023/08/26 04:03:32;;;;;;;11.68;8.50;;;18.70;99.90;;;;;;5020357;28;20528;-84
2023/08/26 04:06:02;;;;;;;12.95;9.10;;;18.70;99.90;;;;;;5037854;28;20159;-84
2023/08/26 04:08:30;;;;;;;11.13;8.75;;;18.70;99.90;;;;;;5020684;28;20189;-85
2023/08/26 04:10:57;;;;;;;10.15;8.88;;;18.70;99.90;;;;;;5020411;28;20676;-84
2023/08/26 04:13:25;;;;;;;16.30;10.27;;;18.70;99.90;;;;;;5020574;28;20542;-85
2023/08/26 04:16:02;;;;;;;12.70;10.48;;;18.70;99.90;;;;;;5021216;28;20171;-85
2023/08/26 04:18:29;;;;;;;16.35;11.13;;;18.70;99.90;;;;;;5037433;28;20644;-85
2023/08/26 04:20:55;;;;;;;16.63;9.98;;;18.80;99.90;;;;;;5020925;28;20183;-85
2023/08/26 04:23:21;;;;;;;14.00;10.70;;;18.70;99.90;;;;;;5038448;28;20175;-86
2023/08/26 04:25:47;;;;;;;12.20;10.48;;;18.80;99.90;;;;;;5038419;28;20166;-86
2023/08/26 04:28:18;;;;;;;14.00;11.27;;;18.80;99.90;;;;;;5025167;28;20206;-93
2023/08/26 04:30:48;;;;;;;14.48;10.55;;;18.80;99.90;;;;;;5032621;28;20185;-89
2023/08/26 04:33:17;;;;;;;14.73;11.02;;;18.80;99.90;;;;;;5035743;28;20173;-85
2023/08/26 04:35:44;;;;;;;14.63;11.10;;;18.80;99.90;;;;;;5039155;28;20347;-85
2023/08/26 04:38:10;;;;;;;13.43;10.45;;;18.80;99.90;;;;;;5036834;28;20230;-85
2023/08/26 04:40:36;;;;;;;13.05;10.55;;;18.80;99.90;;;;;;5042317;28;20242;-96
2023/08/26 04:43:12;;;;;;;15.13;11.13;;;18.80;99.90;;;;;;5033765;28;20186;-85
2023/08/26 04:45:39;;;;;;;13.55;10.60;;;18.80;99.90;;;;;;5036652;28;20194;-95
2023/08/26 04:48:12;;;;;;;13.02;10.82;;;18.80;99.90;;;;;;5035837;28;20244;-84
2023/08/26 04:50:37;;;;;;;14.55;10.73;;;18.80;99.90;;;;;;5037557;28;20221;-86
2023/08/26 04:53:05;;;;;;;16.05;11.27;;;18.80;99.90;;;;;;5036936;28;20175;-84
2023/08/26 04:55:31;;;;;;;13.23;10.75;;;18.80;99.90;;;;;;5035940;28;20205;-89
2023/08/26 04:58:06;;;;;;;12.15;10.85;;;18.80;99.90;;;;;;5057096;28;20178;-85
2023/08/26 05:00:32;;;;;;;13.30;10.15;;;18.80;99.90;;;;;;5038748;28;20197;-88
2023/08/26 05:02:59;;;;;;;14.18;11.43;;;18.80;99.90;;;;;;5039359;28;20177;-86
2023/08/26 05:05:25;;;;;;;15.05;10.77;;;18.80;99.90;;;;;;5040305;28;20234;-84
2023/08/26 05:07:51;;;;;;;14.38;10.73;;;18.90;99.90;;;;;;5038141;28;20194;-85
2023/08/26 05:10:17;;;;;;;14.55;12.32;;;18.90;99.90;;;;;;5034347;28;20174;-89
2023/08/26 05:12:44;;;;;;;20.17;13.02;;;18.90;99.90;;;;;;5051719;28;20177;-92
2023/08/26 05:15:09;;;;;;;16.90;12.93;;;18.90;99.90;;;;;;5034066;28;20239;-85
2023/08/26 05:17:35;;;;;;;19.25;13.88;;;19.00;99.90;;;;;;5033674;28;20178;-85
2023/08/26 05:20:01;;;;;;;18.60;13.82;;;19.00;99.90;;;;;;5027942;28;20619;-85
2023/08/26 05:22:49;;;;;;;15.25;12.77;;;19.00;99.90;;;;;;5031733;28;20232;-83
2023/08/26 05:25:14;;;;;;;18.23;12.48;;;19.00;99.90;;;;;;5014601;28;20174;-96
2023/08/26 05:27:40;;;;;;;17.67;14.05;;;19.00;99.90;;;;;;5010575;28;20206;-94
2023/08/26 05:30:07;;;;;;;17.15;13.80;;;19.10;99.90;;;;;;5029965;28;20171;-93
2023/08/26 05:32:41;;;;;;;14.90;12.32;;;19.10;99.90;;;;;;5031079;28;20219;-96
2023/08/26 05:35:07;;;;;;;20.63;14.98;;;19.10;99.90;;;;;;5016009;28;20191;-96
2023/08/26 05:37:36;;;;;;;19.10;13.60;;;19.20;99.90;;;;;;5028155;28;20246;-87
2023/08/26 05:40:02;;;;;;;19.00;14.30;;;19.20;99.90;;;;;;5011901;28;20202;-94
2023/08/26 05:42:34;;;;;;;20.27;14.77;;;19.20;99.90;;;;;;5031040;28;20172;-87
2023/08/26 05:45:00;;;;;;;20.15;14.50;;;19.30;99.90;;;;;;5032465;28;20249;-96
2023/08/26 05:47:25;;;;;;;20.13;15.27;;;19.40;99.90;;;;;;5017597;28;20246;-96
2023/08/26 05:49:51;;;;;;;23.23;15.68;;;19.40;99.90;;;;;;5028908;28;20186;-92
2023/08/26 05:52:17;;;;;;;23.02;15.15;;;19.40;99.90;;;;;;5009421;28;20187;-86
2023/08/26 05:54:44;;;;;;;27.02;16.30;;;19.40;99.90;;;;;;5033585;28;20246;-85
2023/08/26 05:57:13;;;;;;;19.17;15.23;;;19.40;99.90;;;;;;5029144;28;20171;-90
2023/08/26 05:59:39;;;;;;;21.80;16.75;;;19.40;99.90;;;;;;5030024;28;20245;-96
2023/08/26 06:02:06;;;;;;;21.92;16.55;;;19.40;99.90;;;;;;5032636;28;20167;-94
2023/08/26 06:04:40;;;;;;;22.75;15.57;;;19.40;99.90;;;;;;5045210;28;20683;-85
2023/08/26 06:07:06;;;;;;;23.63;15.98;;;19.40;99.90;;;;;;5021893;28;20185;-86
2023/08/26 06:09:31;;;;;;;21.25;15.73;;;19.50;99.90;;;;;;5041603;28;20174;-87
2023/08/26 06:11:57;;;;;;;20.33;15.60;;;19.50;99.90;;;;;;5023297;28;20236;-87
2023/08/26 06:14:23;;;;;;;21.08;16.33;;;19.60;99.90;;;;;;5019566;28;20276;-83
2023/08/26 06:16:49;;;;;;;25.48;15.32;;;19.70;99.90;;;;;;5027473;28;20501;-84
2023/08/26 06:19:14;;;;;;;22.90;15.30;;;19.80;99.90;;;;;;5031550;28;20241;-85
2023/08/26 06:21:40;;;;;;;22.10;15.02;;;20.00;99.90;;;;;;5023069;28;20283;-87
2023/08/26 06:24:07;;;;;;;19.85;15.77;;;20.20;99.90;;;;;;5037355;28;20194;-84
2023/08/26 06:26:33;;;;;;;21.15;15.48;;;20.40;99.90;;;;;;5015846;28;20246;-85
2023/08/26 06:28:59;;;;;;;21.70;16.45;;;20.50;99.90;;;;;;5000709;28;20645;-84
2023/08/26 06:31:24;;;;;;;22.38;17.08;;;20.60;99.90;;;;;;5017152;28;20183;-85
2023/08/26 06:33:52;;;;;;;22.13;16.05;;;20.70;99.90;;;;;;5009659;28;20289;-85
2023/08/26 06:36:18;;;;;;;21.58;16.63;;;20.80;99.90;;;;;;5019054;28;20185;-85
2023/08/26 06:38:44;;;;;;;30.33;18.25;;;20.80;99.90;;;;;;5036430;28;20211;-86
2023/08/26 06:41:12;;;;;;;23.02;17.77;;;20.80;99.90;;;;;;5020191;28;20222;-85
2023/08/26 06:43:39;;;;;;;22.85;17.75;;;20.80;99.90;;;;;;5023858;28;20179;-91
2023/08/26 06:46:05;;;;;;;22.38;17.40;;;20.90;99.90;;;;;;5026023;28;20174;-89
2023/08/26 06:48:31;;;;;;;23.75;16.85;;;20.90;99.90;;;;;;5025771;28;20201;-88
2023/08/26 06:50:57;;;;;;;22.40;16.95;;;20.80;99.90;;;;;;5025192;28;20199;-94
2023/08/26 06:53:23;;;;;;;25.48;17.90;;;20.90;99.90;;;;;;5025447;28;20178;-87
2023/08/26 06:55:53;;;;;;;23.48;17.67;;;20.90;99.90;;;;;;5025314;28;20181;-86
2023/08/26 06:58:21;;;;;;;22.73;18.00;;;21.00;99.90;;;;;;5008751;28;20186;-87
2023/08/26 07:00:47;;;;;;;22.48;16.88;;;21.00;99.90;;;;;;5021045;28;20244;-93
2023/08/26 07:03:14;;;;;;;24.45;17.40;;;21.00;99.90;;;;;;5038929;28;20192;-87
2023/08/26 07:05:44;;;;;;;22.33;17.65;;;21.00;99.90;;;;;;5018765;28;20179;-86
2023/08/26 07:08:09;;;;;;;18.73;15.73;;;20.90;99.90;;;;;;5019091;28;20209;-86
2023/08/26 07:10:35;;;;;;;24.60;15.60;;;20.80;99.90;;;;;;5020213;28;20182;-88
2023/08/26 07:13:01;;;;;;;24.88;17.58;;;20.70;99.90;;;;;;5019195;28;20190;-86
2023/08/26 07:15:28;;;;;;;19.85;14.93;;;20.60;99.90;;;;;;5019574;28;20193;-86
2023/08/26 07:17:54;;;;;;;21.90;17.35;;;20.80;99.90;;;;;;5036165;28;20175;-88
2023/08/26 07:20:20;;;;;;;16.92;15.07;;;20.70;99.90;;;;;;5019354;28;20210;-87
2023/08/26 07:22:48;;;;;;;21.25;14.25;;;20.80;99.90;;;;;;5020651;28;20179;-89
2023/08/26 07:25:14;;;;;;;20.88;15.27;;;20.80;99.90;;;;;;5019512;28;20214;-87
2023/08/26 07:27:40;;;;;;;22.45;15.32;;;20.70;99.90;;;;;;5039125;28;20175;-89
2023/08/26 07:30:09;;;;;;;16.73;13.73;;;20.60;99.90;;;;;;5040171;28;20174;-88
2023/08/26 07:32:36;;;;;;;19.42;14.70;;;20.40;99.90;;;;;;5023054;28;20225;-89
2023/08/26 07:35:02;;;;;;;19.27;13.65;;;20.40;99.90;;;;;;5023070;28;20175;-89
2023/08/26 07:37:29;;;;;;;16.08;13.55;;;20.40;99.90;;;;;;5024143;28;20206;-90
2023/08/26 07:39:55;;;;;;;18.98;12.30;;;20.40;99.90;;;;;;5020015;28;20652;-87
2023/08/26 07:42:23;;;;;;;13.02;10.77;;;20.30;99.90;;;;;;5037320;28;20282;-90
2023/08/26 07:44:49;;;;;;;14.48;10.82;;;20.30;99.90;;;;;;5018508;28;20239;-89
2023/08/26 07:47:15;;;;;;;14.32;10.27;;;20.30;99.90;;;;;;5019181;28;20167;-91
2023/08/26 07:49:41;;;;;;;15.27;10.40;;;20.30;99.90;;;;;;5020531;28;20213;-88
2023/08/26 07:52:06;;;;;;;10.57;9.50;;;20.30;99.90;;;;;;5020700;28;20175;-91
2023/08/26 07:54:45;;;;;;;13.70;9.77;;;20.20;99.90;;;;;;5020055;28;20182;-89
2023/08/26 07:57:12;;;;;;;13.02;9.77;;;20.20;99.90;;;;;;5018626;28;20170;-89
2023/08/26 07:59:38;;;;;;;13.63;9.63;;;20.20;99.90;;;;;;5018471;28;20233;-89
2023/08/26 08:02:04;;;;;;;13.23;9.38;;;20.20;99.90;;;;;;5020128;28;20171;-88
2023/08/26 08:04:37;;;;;;;14.75;9.05;;;20.20;99.90;;;;;;5019029;28;20221;-89
2023/08/26 08:07:03;;;;;;;11.32;9.07;;;20.20;99.90;;;;;;5036291;28;20174;-90
2023/08/26 08:09:29;;;;;;;13.00;9.40;;;20.30;99.90;;;;;;5018630;28;20190;-88
2023/08/26 08:11:55;;;;;;;10.48;8.25;;;20.30;99.90;;;;;;5019348;28;20174;-89
2023/08/26 08:14:21;;;;;;;13.27;8.20;;;20.30;99.90;;;;;;5017992;28;20262;-86
2023/08/26 08:16:47;;;;;;;7.90;5.88;;;20.20;99.90;;;;;;5018085;28;20617;-90
2023/08/26 08:19:13;;;;;;;8.95;5.75;;;20.00;99.90;;;;;;5017675;28;20222;-92
2023/08/26 08:21:38;;;;;;;13.25;6.03;;;19.90;99.90;;;;;;5017637;28;20191;-90
2023/08/26 08:24:04;;;;;;;6.70;4.30;;;19.80;99.90;;;;;;5018229;28;20201;-91
2023/08/26 08:26:32;;;;;;;5.45;4.22;;;19.90;99.90;;;;;;5018037;28;20175;-86
2023/08/26 08:28:58;;;;;;;5.47;3.50;;;19.90;99.90;;;;;;5017361;28;20622;-88
2023/08/26 08:31:24;;;;;;;4.38;2.50;;;20.00;99.90;;;;;;5018495;28;20218;-88
2023/08/26 08:33:51;;;;;;;4.05;2.03;;;20.10;99.90;;;;;;5017752;28;20671;-91
2023/08/26 08:36:16;;;;;;;2.05;1.15;;;20.20;99.90;;;;;;5035089;28;20204;-87
2023/08/26 08:38:42;;;;;;;2.95;1.08;;;20.10;99.90;;;;;;5016827;28;20202;-85
2023/08/26 08:41:08;;;;;;;4.68;0.98;;;20.10;99.90;;;;;;5016629;28;20237;-85
2023/08/26 08:43:37;;;;;;;1.48;0.93;;;20.10;99.90;;;;;;5017349;28;20621;-88
2023/08/26 08:46:04;;;;;;;2.90;1.02;;;20.00;99.90;;;;;;5017477;28;20182;-89
2023/08/26 08:48:33;;;;;;;1.55;0.80;;;20.10;99.90;;;;;;5034864;28;20217;-94
2023/08/26 08:51:00;;;;;;;5.07;1.15;;;20.10;99.90;;;;;;5017372;28;20609;-89
2023/08/26 08:53:32;;;;;;;3.25;1.00;;;20.00;99.90;;;;;;5016995;28;20198;-86
2023/08/26 08:56:02;;;;;;;2.65;1.08;;;20.00;99.90;;;;;;5017071;28;20167;-89
2023/08/26 08:58:29;;;;;;;2.67;1.02;;;20.00;99.90;;;;;;5016790;28;20198;-91
2023/08/26 09:00:57;;;;;;;2.75;1.10;;;20.00;99.90;;;;;;5016904;28;20276;-87
2023/08/26 09:03:24;;;;;;;2.80;0.85;;;20.20;99.90;;;;;;5016624;28;20233;-88
2023/08/26 09:05:52;;;;;;;5.78;1.10;;;20.20;99.90;;;;;;5016798;28;20178;-88
2023/08/26 09:08:20;;;;;;;7.50;1.30;;;20.20;99.90;;;;;;5016612;28;20601;-87
2023/08/26 09:10:47;;;;;;;3.53;1.20;;;20.20;99.90;;;;;;5016883;28;20190;-88
2023/08/26 09:13:12;;;;;;;2.08;0.90;;;20.30;99.90;;;;;;5016340;28;20191;-88
2023/08/26 09:15:39;;;;;;;3.03;0.95;;;20.30;99.90;;;;;;5034420;28;20178;-87
2023/08/26 09:18:11;;;;;;;3.03;1.02;;;20.30;99.90;;;;;;5034304;28;20249;-88
2023/08/26 09:20:41;;;;;;;4.90;1.40;;;20.40;99.90;;;;;;5016728;28;20634;-88
2023/08/26 09:23:09;;;;;;;1.60;0.80;;;20.40;99.90;;;;;;5016645;28;20202;-89
2023/08/26 09:25:36;;;;;;;3.10;1.10;;;20.40;99.90;;;;;;5016632;28;20181;-87
2023/08/26 09:28:04;;;;;;;2.95;1.13;;;20.40;99.90;;;;;;5016229;28;20178;-88
2023/08/26 09:30:30;;;;;;;3.42;1.15;;;20.50;99.90;;;;;;5016583;28;20609;-87
2023/08/26 09:32:55;;;;;;;4.70;0.90;;;20.50;99.90;;;;;;5034159;28;20270;-86
2023/08/26 09:35:22;;;;;;;1.88;0.90;;;20.50;99.90;;;;;;5016600;28;20261;-87
2023/08/26 09:37:56;;;;;;;3.25;1.00;;;20.60;99.90;;;;;;5016538;28;20210;-87
2023/08/26 09:40:22;;;;;;;5.00;1.25;;;20.70;99.90;;;;;;5016307;28;20341;-86
2023/08/26 09:42:50;;;;;;;4.75;1.00;;;20.60;99.90;;;;;;5019773;28;20246;-89
2023/08/26 09:45:20;;;;;;;4.15;1.02;;;20.70;99.90;;;;;;5038082;28;20185;-86
2023/08/26 09:47:49;;;;;;;4.72;1.10;;;20.60;99.90;;;;;;5020926;28;20269;-88
2023/08/26 09:50:14;;;;;;;5.80;1.27;;;20.60;99.90;;;;;;5020505;28;20209;-92
2023/08/26 09:52:42;;;;;;;1.50;0.93;;;20.60;99.90;;;;;;5038298;28;20183;-91
2023/08/26 09:55:15;;;;;;;4.63;1.00;;;20.60;99.90;;;;;;5020845;28;20170;-89
2023/08/26 09:57:43;;;;;;;4.43;1.02;;;20.70;99.90;;;;;;5020355;28;20632;-89
2023/08/26 10:00:13;;;;;;;2.50;1.08;;;20.80;99.90;;;;;;5020497;28;20269;-89
2023/08/26 10:02:51;;;;;;;2.47;0.80;;;20.90;99.90;;;;;;5020526;28;20182;-92
2023/08/26 10:05:26;;;;;;;6.75;1.00;;;20.90;99.90;;;;;;5000701;28;20245;-88
2023/08/26 10:07:53;;;;;;;5.65;1.02;;;20.90;99.90;;;;;;5018261;28;20242;-90
2023/08/26 10:10:51;;;;;;;6.22;1.27;;;20.90;99.90;;;;;;5000823;28;20185;-92
2023/08/26 10:13:21;;;;;;;2.90;1.00;;;20.90;99.90;;;;;;5000328;28;20603;-90
2023/08/26 10:15:53;;;;;;;3.15;1.13;;;20.70;99.90;;;;;;5000578;28;20255;-91
2023/08/26 10:18:39;;;;;;;3.22;0.90;;;20.40;99.90;;;;;;5000413;28;20226;-88
2023/08/26 10:21:05;;;;;;;3.08;1.00;;;20.30;99.90;;;;;;5018028;28;20171;-91
2023/08/26 10:23:32;;;;;;;2.35;1.02;;;20.10;99.90;;;;;;5000500;28;20171;-89
2023/08/26 10:25:59;;;;;;;4.00;1.05;;;19.90;99.90;;;;;;5017779;28;20632;-90
2023/08/26 10:28:26;;;;;;;3.22;1.10;;;20.00;99.90;;;;;;5000043;28;20177;-86
2023/08/26 10:30:54;;;;;;;3.80;1.00;;;20.20;99.90;;;;;;5000023;28;20237;-89
2023/08/26 10:33:20;;;;;;;5.68;1.10;;;20.20;99.90;;;;;;5005037;28;20190;-89
2023/08/26 10:36:13;;;;;;;4.30;1.13;;;20.20;99.90;;;;;;5037263;28;20187;-88
2023/08/26 10:38:39;;;;;;;3.13;1.00;;;20.10;99.90;;;;;;5027081;28;20214;-88
2023/08/26 10:41:12;;;;;;;1.90;0.88;;;20.00;99.90;;;;;;5037092;28;20226;-87
2023/08/26 10:43:51;;;;;;;3.40;0.85;;;20.20;99.90;;;;;;5019088;28;20190;-89
2023/08/26 10:46:32;;;;;;;4.13;1.05;;;20.50;99.90;;;;;;5019810;28;20712;-89
2023/08/26 10:48:59;;;;;;;6.15;0.88;;;20.70;99.90;;;;;;5019141;28;20186;-87
2023/08/26 10:51:26;;;;;;;7.45;0.95;;;20.90;99.90;;;;;;5019315;28;20209;-87
2023/08/26 10:53:52;;;;;;;5.50;0.93;;;21.10;99.90;;;;;;5019368;28;20178;-89
2023/08/26 10:56:26;;;;;;;5.93;1.20;;;21.40;99.90;;;;;;5019360;28;20182;-89
2023/08/26 10:58:51;;;;;;;2.75;0.88;;;21.50;99.90;;;;;;5036543;28;20212;-86
2023/08/26 11:01:17;;;;;;;2.97;1.02;;;21.50;99.90;;;;;;5018725;28;20174;-89
2023/08/26 11:03:46;;;;;;;3.80;1.23;;;21.50;99.90;;;;;;5019116;28;20276;-89
2023/08/26 11:06:22;;;;;;;3.60;1.25;;;21.40;99.90;;;;;;5036826;28;20178;-89
2023/08/26 11:08:56;;;;;;;4.55;1.15;;;21.10;99.90;;;;;;5018712;28;20263;-88
2023/08/26 11:11:23;;;;;;;4.38;1.30;;;21.10;99.90;;;;;;5019040;28;20184;-89
2023/08/26 11:13:48;;;;;;;3.03;1.20;;;21.00;99.90;;;;;;5018688;28;20185;-86
2023/08/26 11:16:19;;;;;;;1.80;0.93;;;21.20;99.90;;;;;;5018556;28;20265;-88
2023/08/26 11:18:46;;;;;;;1.80;0.90;;;21.20;99.90;;;;;;5018809;28;20360;-87
2023/08/26 11:21:12;;;;;;;2.45;1.10;;;21.20;99.90;;;;;;5018747;28;20189;-87
2023/08/26 11:23:39;;;;;;;2.97;0.90;;;21.30;99.90;;;;;;5018416;28;20210;-87
2023/08/26 11:26:08;;;;;;;5.53;0.90;;;21.40;99.90;;;;;;5036453;28;20258;-86
2023/08/26 11:28:34;;;;;;;2.33;0.85;;;21.50;99.90;;;;;;5018078;28;20221;-89
2023/08/26 11:31:00;;;;;;;2.97;0.90;;;21.70;99.90;;;;;;5018233;28;20194;-88
2023/08/26 11:33:27;;;;;;;2.30;0.88;;;21.80;99.90;;;;;;5035736;28;20179;-88
2023/08/26 11:35:53;;;;;;;3.08;1.17;;;21.80;99.90;;;;;;5017970;28;20179;-87
2023/08/26 11:38:19;;;;;;;4.22;1.20;;;21.90;99.90;;;;;;5017621;28;20683;-87
2023/08/26 11:40:46;;;;;;;3.47;1.08;;;22.00;99.90;;;;;;5035109;28;20608;-89
2023/08/26 11:43:14;;;;;;;4.40;0.95;;;22.10;99.90;;;;;;5034793;28;20170;-88
2023/08/26 11:45:42;;;;;;;6.60;1.08;;;21.70;99.60;;;;;;5034930;28;20206;-89
2023/08/26 11:48:11;;;;;;;8.43;1.30;;;21.60;99.90;;;;;;5017168;28;20253;-88
2023/08/26 11:50:38;;;;;;;3.67;1.10;;;21.50;99.90;;;;;;5017112;28;20213;-88
2023/08/26 11:53:04;;;;;;;2.00;1.05;;;21.50;99.90;;;;;;5017018;28;20729;-88
2023/08/26 11:55:34;;;;;;;2.03;1.00;;;21.40;99.90;;;;;;5017162;28;20170;-86
2023/08/26 11:58:01;;;;;;;4.70;1.17;;;21.50;99.90;;;;;;5016736;28;20174;-88
2023/08/26 12:00:27;;;;;;;5.18;1.17;;;21.70;99.90;;;;;;5016885;28;20222;-86
2023/08/26 12:03:04;;;;;;;6.63;1.23;;;21.70;99.90;;;;;;5016751;28;20186;-85
2023/08/26 12:05:46;;;;;;;4.32;1.35;;;21.30;99.90;;;;;;5034184;28;20601;-86
2023/08/26 12:08:16;;;;;;;7.07;1.10;;;21.00;99.90;;;;;;5017090;28;20174;-87
2023/08/26 12:10:46;;;;;;;2.88;1.13;;;20.70;99.90;;;;;;5016975;28;20529;-86
2023/08/26 12:13:11;;;;;;;6.55;1.08;;;20.60;99.90;;;;;;5016632;28;20175;-88
2023/08/26 12:15:40;;;;;;;3.03;0.98;;;20.60;99.90;;;;;;5016768;28;20178;-88
2023/08/26 12:18:06;;;;;;;4.32;1.20;;;20.50;99.90;;;;;;5016882;28;20648;-88
2023/08/26 12:20:32;;;;;;;3.50;1.20;;;20.40;99.90;;;;;;5016749;28;20222;-88
2023/08/26 12:23:03;;;;;;;3.85;1.30;;;20.40;99.90;;;;;;5016494;28;20237;-87
2023/08/26 12:25:31;;;;;;;2.42;1.10;;;20.60;99.90;;;;;;5034230;28;20617;-87
2023/08/26 12:28:26;;;;;;;2.58;1.15;;;20.80;99.90;;;;;;5016698;28;20181;-89
2023/08/26 12:30:52;;;;;;;5.65;1.00;;;21.00;99.90;;;;;;5016568;28;20183;-88
2023/08/26 12:33:18;;;;;;;2.17;1.00;;;21.30;99.90;;;;;;5016500;28;20609;-90
2023/08/26 12:35:45;;;;;;;2.67;1.10;;;21.50;99.90;;;;;;5016478;28;20589;-88
2023/08/26 12:38:12;;;;;;;5.15;1.10;;;21.60;99.90;;;;;;5015981;28;20179;-86
2023/08/26 12:40:40;;;;;;;3.95;0.90;;;21.40;99.90;;;;;;4976306;28;1139465;-86
2023/08/26 12:43:06;;;;;;;2.17;0.90;;;21.50;99.90;;;;;;5016417;28;20182;-88
2023/08/26 12:45:34;;;;;;;1.98;1.02;;;21.50;99.90;;;;;;5016911;28;20332;-87